This is the latest recevied weather packets stored in our database for station/object ON3FV. If no packets are shown the sender has not sent any weather packets the latest 10 day(s).
| Time | Temp. | Humidity | Pressure | Rain* | Wind** | Luminosity | Snow |
|---|---|---|---|---|---|---|---|
| 1777665891 | 19.44° C | 52% | 1019.5 hPa | - | - | - | - |
| 1777664947 | 20.56° C | 49% | 1019.5 hPa | - | - | - | - |
| 1777664647 | 20.56° C | 49% | 1019.5 hPa | - | - | - | - |
| 1777664346 | 20.56° C | 46% | 1019.4 hPa | - | - | - | - |
| 1777662541 | 22.22° C | 44% | 1019.3 hPa | - | - | - | - |
| 1777660735 | 23.33° C | 43% | 1019.2 hPa | - | - | - | - |
| 1777660432 | 23.33° C | 43% | 1019.2 hPa | - | - | - | - |
| 1777658326 | 23.89° C | 41% | 1019.1 hPa | - | - | - | - |
| 1777657423 | 24.44° C | 40% | 1019.2 hPa | - | - | - | - |
| 1777656219 | 24.44° C | 40% | 1019.1 hPa | - | - | - | - |
| 1777655948 | 24.44° C | 40% | 1019.1 hPa | - | - | - | - |
| 1777654714 | 24.44° C | 41% | 1019.3 hPa | - | - | - | - |
| 1777654113 | 24.44° C | 41% | 1019.3 hPa | - | - | - | - |
| 1777653530 | 24.44° C | 42% | 1019.4 hPa | - | - | - | - |
| 1777652306 | 24.44° C | 42% | 1019.6 hPa | - | - | - | - |
| 1777650198 | 24.44° C | 40% | 1019.7 hPa | - | - | - | - |
| 1777649597 | 24.44° C | 40% | 1019.8 hPa | - | - | - | - |
| 1777647791 | 24.44° C | 39% | 1020 hPa | - | - | - | - |
| 1777643878 | 23.89° C | 40% | 1020.4 hPa | - | - | - | - |
| 1777641170 | 23.33° C | 40% | 1020.8 hPa | - | - | - | - |
| 1777640567 | 23.33° C | 40% | 1020.8 hPa | - | - | - | - |
| 1777639664 | 23.33° C | 41% | 1020.9 hPa | - | - | - | - |
| 1777639062 | 22.78° C | 41% | 1020.9 hPa | - | - | - | - |
| 1777637558 | 22.78° C | 41% | 1021.1 hPa | - | - | - | - |
| 1777637255 | 22.78° C | 41% | 1021.1 hPa | - | - | - | - |
* Rain since midnight (hover to see other rain measurements)
** Current wind speed in m/s (hover to see current wind gust speed)